createdAt,value
2022-11-13T00:01:07.179Z,3.40
2022-11-13T00:03:33.849Z,3.30
2022-11-13T00:06:01.999Z,3.30
2022-11-13T00:08:29.215Z,3.20
2022-11-13T00:11:05.361Z,3.20
2022-11-13T00:13:33.068Z,3.20
2022-11-13T00:16:02.180Z,3.20
2022-11-13T00:18:30.406Z,3.20
2022-11-13T00:20:58.945Z,3.20
2022-11-13T00:23:25.635Z,3.10
2022-11-13T00:25:52.293Z,3.20
2022-11-13T00:28:18.922Z,3.20
2022-11-13T00:30:45.743Z,3.20
2022-11-13T00:33:26.488Z,3.00
2022-11-13T00:36:06.510Z,2.80
2022-11-13T00:38:33.270Z,2.80
2022-11-13T00:40:59.997Z,2.90
2022-11-13T00:43:27.107Z,3.00
2022-11-13T00:45:53.925Z,3.00
2022-11-13T00:48:20.967Z,3.00
2022-11-13T00:50:48.098Z,3.00
2022-11-13T00:53:18.037Z,3.00
2022-11-13T00:55:45.809Z,2.90
2022-11-13T00:58:13.425Z,2.90
2022-11-13T01:00:41.937Z,2.50
2022-11-13T01:03:09.038Z,2.20
2022-11-13T01:05:37.628Z,2.40
2022-11-13T01:08:05.316Z,2.40
2022-11-13T01:10:33.106Z,2.30
2022-11-13T01:12:59.843Z,2.30
2022-11-13T01:15:27.394Z,2.40
2022-11-13T01:17:55.097Z,2.20
2022-11-13T01:20:25.572Z,2.00
2022-11-13T01:22:52.300Z,2.10
2022-11-13T01:25:18.974Z,2.20
2022-11-13T01:27:45.575Z,2.30
2022-11-13T01:30:13.038Z,2.30
2022-11-13T01:32:39.777Z,2.20
2022-11-13T01:35:06.778Z,1.80
2022-11-13T01:37:33.439Z,1.60
2022-11-13T01:40:00.078Z,1.70
2022-11-13T01:42:26.914Z,1.70
2022-11-13T01:45:04.670Z,1.80
2022-11-13T01:47:31.872Z,1.70
2022-11-13T01:50:02.198Z,1.80
2022-11-13T01:52:36.353Z,1.80
2022-11-13T01:55:08.443Z,1.80
2022-11-13T01:57:35.526Z,1.70
2022-11-13T02:00:08.552Z,1.60
2022-11-13T02:02:38.434Z,1.50
2022-11-13T02:05:08.562Z,1.30
2022-11-13T02:07:35.347Z,1.00
2022-11-13T02:10:01.995Z,1.10
2022-11-13T02:12:34.142Z,0.90
2022-11-13T02:15:03.856Z,1.20
2022-11-13T02:17:36.360Z,1.30
2022-11-13T02:20:05.381Z,1.30
2022-11-13T02:22:54.371Z,1.30
2022-11-13T02:25:21.833Z,1.20
2022-11-13T02:27:50.405Z,1.30
2022-11-13T02:30:27.205Z,1.50
2022-11-13T02:32:56.249Z,1.40
2022-11-13T02:35:28.622Z,1.10
2022-11-13T02:37:57.122Z,1.10
2022-11-13T02:40:24.884Z,1.30
2022-11-13T02:42:51.568Z,1.40
2022-11-13T02:45:18.380Z,1.30
2022-11-13T02:47:45.166Z,1.20
2022-11-13T02:50:12.610Z,1.20
2022-11-13T02:52:39.317Z,1.10
2022-11-13T02:55:06.283Z,1.10
2022-11-13T02:57:33.388Z,1.00
2022-11-13T03:00:00.045Z,1.10
2022-11-13T03:02:26.712Z,1.30
2022-11-13T03:07:40.665Z,1.30
2022-11-13T03:10:08.440Z,1.30
2022-11-13T03:12:35.317Z,1.40
2022-11-13T03:15:02.049Z,1.40
2022-11-13T03:17:31.296Z,1.50
2022-11-13T03:19:58.284Z,1.40
2022-11-13T03:22:25.665Z,1.30
2022-11-13T03:24:52.362Z,1.40
2022-11-13T03:27:19.761Z,1.40
2022-11-13T03:29:46.632Z,1.50
2022-11-13T03:32:13.335Z,1.40
2022-11-13T03:34:40.046Z,1.40
2022-11-13T03:37:06.809Z,1.40
2022-11-13T03:39:33.512Z,1.50
2022-11-13T03:42:00.211Z,1.30
2022-11-13T03:44:26.853Z,1.10
2022-11-13T03:46:53.543Z,0.80
2022-11-13T03:49:20.202Z,0.80
2022-11-13T03:51:47.197Z,0.80
2022-11-13T03:54:13.884Z,0.90
2022-11-13T03:56:40.588Z,1.00
2022-11-13T03:59:07.498Z,1.00
2022-11-13T04:01:34.966Z,1.10
2022-11-13T04:04:01.744Z,1.20
2022-11-13T04:06:28.516Z,1.30
2022-11-13T04:08:55.252Z,1.40
2022-11-13T04:11:21.967Z,1.50
2022-11-13T04:13:48.631Z,1.50
2022-11-13T04:16:15.352Z,1.50
2022-11-13T04:18:42.145Z,1.40
2022-11-13T04:21:09.336Z,1.00
2022-11-13T04:23:36.062Z,0.80
2022-11-13T04:26:02.752Z,0.80
2022-11-13T04:28:29.761Z,0.80
2022-11-13T04:30:56.820Z,0.70
2022-11-13T04:33:23.542Z,0.70
2022-11-13T04:35:50.430Z,0.70
2022-11-13T04:38:17.066Z,0.80
2022-11-13T04:40:44.122Z,0.90
2022-11-13T04:43:11.059Z,1.00
2022-11-13T04:45:38.364Z,1.10
2022-11-13T04:48:05.097Z,1.20
2022-11-13T04:50:31.907Z,1.30
2022-11-13T04:52:58.614Z,1.40
2022-11-13T04:55:25.269Z,1.40
2022-11-13T04:57:55.517Z,1.40
2022-11-13T05:00:22.581Z,1.50
2022-11-13T05:02:49.283Z,1.30
2022-11-13T05:05:16.108Z,1.30
2022-11-13T05:07:42.792Z,1.20
2022-11-13T05:10:09.713Z,0.90
2022-11-13T05:12:36.480Z,0.70
2022-11-13T05:15:03.695Z,0.80
2022-11-13T05:17:30.381Z,0.80
2022-11-13T05:19:57.209Z,0.70
2022-11-13T05:22:23.906Z,0.80
2022-11-13T05:24:50.532Z,0.90
2022-11-13T05:27:17.867Z,1.00
2022-11-13T05:29:44.922Z,1.10
2022-11-13T05:32:11.864Z,1.20
2022-11-13T05:34:38.527Z,1.30
2022-11-13T05:37:05.194Z,1.30
2022-11-13T05:39:31.952Z,1.30
2022-11-13T05:41:58.623Z,1.30
2022-11-13T05:44:25.362Z,1.30
2022-11-13T05:46:52.050Z,1.40
2022-11-13T05:49:18.726Z,1.40
2022-11-13T05:51:45.378Z,1.40
2022-11-13T05:54:12.037Z,1.40
2022-11-13T05:56:38.710Z,1.40
2022-11-13T05:59:05.622Z,1.30
2022-11-13T06:01:34.896Z,1.40
2022-11-13T06:04:02.739Z,1.30
2022-11-13T06:06:31.186Z,1.30
2022-11-13T06:08:59.795Z,1.40
2022-11-13T06:11:28.303Z,1.50
2022-11-13T06:13:56.349Z,1.50
2022-11-13T06:16:25.652Z,1.50
2022-11-13T06:18:56.869Z,1.30
2022-11-13T06:21:26.559Z,1.20
2022-11-13T06:23:53.677Z,1.20
2022-11-13T06:26:23.463Z,1.30
2022-11-13T06:28:50.229Z,1.20
2022-11-13T06:31:19.792Z,1.20
2022-11-13T06:33:46.883Z,1.30
2022-11-13T06:36:16.222Z,1.40
2022-11-13T06:38:43.877Z,1.40
2022-11-13T06:41:13.172Z,1.40
2022-11-13T06:43:40.283Z,1.40
2022-11-13T06:46:13.177Z,1.50
2022-11-13T06:48:39.933Z,1.50
2022-11-13T06:51:09.737Z,1.60
2022-11-13T06:53:36.467Z,1.60
2022-11-13T06:56:06.317Z,1.60
2022-11-13T06:58:33.849Z,1.60
2022-11-13T07:01:09.160Z,1.70
2022-11-13T07:03:36.145Z,1.70
2022-11-13T07:06:05.049Z,1.60
2022-11-13T07:08:32.566Z,1.50
2022-11-13T07:10:59.698Z,1.30
2022-11-13T07:13:27.743Z,1.20
2022-11-13T07:15:54.818Z,1.40
2022-11-13T07:18:24.156Z,1.50
2022-11-13T07:20:51.113Z,1.60
2022-11-13T07:23:17.932Z,1.60
2022-11-13T07:25:44.716Z,1.70
2022-11-13T07:28:11.531Z,1.80
2022-11-13T07:30:38.235Z,1.90
2022-11-13T07:33:05.331Z,2.00
2022-11-13T07:35:32.046Z,2.00
2022-11-13T07:37:59.288Z,1.80
2022-11-13T07:40:25.986Z,1.50
2022-11-13T07:43:02.811Z,1.00
2022-11-13T07:45:29.730Z,0.80
2022-11-13T07:48:04.260Z,0.90
2022-11-13T07:50:38.499Z,1.10
2022-11-13T07:53:08.187Z,1.10
2022-11-13T07:55:35.742Z,1.00
2022-11-13T07:58:03.234Z,0.90
2022-11-13T08:00:33.045Z,1.00
2022-11-13T08:03:09.872Z,1.10
2022-11-13T08:05:36.771Z,1.20
2022-11-13T08:08:03.788Z,1.40
2022-11-13T08:10:30.848Z,1.70
2022-11-13T08:13:03.253Z,2.10
2022-11-13T08:15:30.883Z,2.30
2022-11-13T08:17:59.496Z,2.40
2022-11-13T08:20:28.026Z,2.50
2022-11-13T08:23:02.363Z,2.60
2022-11-13T08:25:30.626Z,2.70
2022-11-13T08:27:57.665Z,2.80
2022-11-13T08:30:26.311Z,2.80
2022-11-13T08:32:53.392Z,2.90
2022-11-13T08:35:23.990Z,2.90
2022-11-13T08:37:53.450Z,2.90
2022-11-13T08:40:20.230Z,2.90
2022-11-13T08:42:47.015Z,2.60
2022-11-13T08:45:13.727Z,2.70
2022-11-13T08:47:40.379Z,2.80
2022-11-13T08:50:07.565Z,2.80
2022-11-13T08:52:34.355Z,2.50
2022-11-13T08:55:01.020Z,2.70
2022-11-13T08:57:27.781Z,2.70
2022-11-13T08:59:54.422Z,2.30
2022-11-13T09:02:21.069Z,2.20
2022-11-13T09:04:47.739Z,2.50
2022-11-13T09:07:14.542Z,2.60
2022-11-13T09:09:41.296Z,2.70
2022-11-13T09:12:08.309Z,3.00
2022-11-13T09:14:36.422Z,3.10
2022-11-13T09:17:03.140Z,3.40
2022-11-13T09:19:29.880Z,3.50
2022-11-13T09:21:56.676Z,3.60
2022-11-13T09:24:23.411Z,3.30
2022-11-13T09:26:50.236Z,3.40
2022-11-13T09:29:16.873Z,3.50
2022-11-13T09:31:43.719Z,3.30
2022-11-13T09:34:10.477Z,3.30
2022-11-13T09:36:37.226Z,3.30
2022-11-13T09:39:07.193Z,3.50
2022-11-13T09:41:39.271Z,3.80
2022-11-13T09:44:14.843Z,4.00
2022-11-13T09:46:55.493Z,4.20
2022-11-13T09:49:34.569Z,4.40
2022-11-13T09:52:06.814Z,4.50
2022-11-13T09:54:33.980Z,4.50
2022-11-13T09:57:26.436Z,4.60
2022-11-13T09:59:56.341Z,4.70
2022-11-13T10:03:11.213Z,4.80
2022-11-13T10:05:52.631Z,4.70
2022-11-13T10:08:30.460Z,4.70
2022-11-13T10:11:23.479Z,4.80
2022-11-13T10:13:53.385Z,4.90
2022-11-13T10:16:36.820Z,5.10
2022-11-13T10:19:20.604Z,5.20
2022-11-13T10:21:58.584Z,5.40
2022-11-13T10:24:42.001Z,5.40
2022-11-13T10:27:11.239Z,5.40
2022-11-13T10:29:38.918Z,5.60
2022-11-13T10:32:27.752Z,5.80
2022-11-13T10:35:08.555Z,5.90
2022-11-13T10:38:07.763Z,5.90
2022-11-13T10:40:39.084Z,6.00
2022-11-13T10:43:19.345Z,6.20
2022-11-13T10:46:00.856Z,6.20
2022-11-13T10:48:32.142Z,6.50
2022-11-13T10:51:02.143Z,6.80
2022-11-13T10:53:39.409Z,7.00
2022-11-13T10:56:35.626Z,7.30
2022-11-13T10:59:10.480Z,7.90
2022-11-13T11:01:37.907Z,8.20
2022-11-13T11:04:06.864Z,8.50
2022-11-13T11:09:31.549Z,8.80
2022-11-13T11:12:16.827Z,9.10
2022-11-13T11:15:01.461Z,9.10
2022-11-13T11:17:37.053Z,9.40
2022-11-13T11:20:17.229Z,9.50
2022-11-13T11:22:45.812Z,9.40
2022-11-13T11:25:46.320Z,9.30
2022-11-13T11:28:51.925Z,9.60
2022-11-13T11:31:54.711Z,9.60
2022-11-13T11:34:33.225Z,10.00
2022-11-13T11:37:20.309Z,10.10
2022-11-13T11:40:16.426Z,10.00
2022-11-13T11:42:54.124Z,10.00
2022-11-13T11:45:32.870Z,10.10
2022-11-13T11:48:01.798Z,10.20
2022-11-13T11:51:08.169Z,10.40
2022-11-13T11:53:45.790Z,10.70
2022-11-13T11:56:27.414Z,11.00
2022-11-13T11:59:00.233Z,11.00
2022-11-13T12:01:29.800Z,11.10
2022-11-13T12:04:11.001Z,10.80
2022-11-13T12:06:46.986Z,10.60
2022-11-13T12:09:43.840Z,10.30
2022-11-13T12:12:31.126Z,10.60
2022-11-13T12:15:03.623Z,10.80
2022-11-13T12:17:48.422Z,11.10
2022-11-13T12:20:19.423Z,11.20
2022-11-13T12:23:31.575Z,11.50
2022-11-13T12:26:16.285Z,12.10
2022-11-13T12:29:18.020Z,12.50
2022-11-13T12:32:07.974Z,12.70
2022-11-13T12:34:50.098Z,12.80
2022-11-13T12:37:25.768Z,12.80
2022-11-13T12:40:00.486Z,13.00
2022-11-13T12:42:55.876Z,13.20
2022-11-13T12:45:22.541Z,13.50
2022-11-13T12:47:52.051Z,13.20
2022-11-13T12:50:32.417Z,13.00
2022-11-13T12:53:05.731Z,12.70
2022-11-13T12:55:35.240Z,12.20
2022-11-13T12:58:27.387Z,12.30
2022-11-13T13:01:06.839Z,12.10
2022-11-13T13:03:52.170Z,12.00
2022-11-13T13:06:31.082Z,12.00
2022-11-13T13:09:05.761Z,12.00
2022-11-13T13:11:44.718Z,11.90
2022-11-13T13:14:26.570Z,12.30
2022-11-13T13:17:13.606Z,12.60
2022-11-13T13:19:40.971Z,13.00
2022-11-13T13:22:31.678Z,13.10
2022-11-13T13:25:01.643Z,13.20
2022-11-13T13:27:32.920Z,13.30
2022-11-13T13:30:00.643Z,13.40
2022-11-13T13:32:43.194Z,13.10
2022-11-13T13:35:17.175Z,13.00
2022-11-13T13:38:24.304Z,12.80
2022-11-13T13:41:31.578Z,12.30
2022-11-13T13:44:14.849Z,12.30
2022-11-13T13:46:42.290Z,12.40
2022-11-13T13:49:16.107Z,12.30
2022-11-13T13:51:52.361Z,12.40
2022-11-13T13:54:23.286Z,12.60
2022-11-13T13:56:50.630Z,12.70
2022-11-13T13:59:21.794Z,12.80
2022-11-13T14:01:58.196Z,12.80
2022-11-13T14:04:29.204Z,12.80
2022-11-13T14:06:59.156Z,12.70
2022-11-13T14:09:29.988Z,12.50
2022-11-13T14:12:16.987Z,12.50
2022-11-13T14:14:43.681Z,12.40
2022-11-13T14:17:12.099Z,12.40
2022-11-13T14:19:38.991Z,12.40
2022-11-13T14:22:08.554Z,12.50
2022-11-13T14:24:44.956Z,12.50
2022-11-13T14:27:18.311Z,12.50
2022-11-13T14:29:52.225Z,12.40
2022-11-13T14:32:19.266Z,12.40
2022-11-13T14:34:48.656Z,12.40
2022-11-13T14:37:40.174Z,12.40
2022-11-13T14:40:20.959Z,12.30
2022-11-13T14:42:57.902Z,12.20
2022-11-13T14:45:27.127Z,12.00
2022-11-13T14:48:18.630Z,12.00
2022-11-13T14:50:59.142Z,11.80
2022-11-13T14:53:32.238Z,11.60
2022-11-13T14:56:10.665Z,11.50
2022-11-13T14:58:49.750Z,11.40
2022-11-13T15:01:22.464Z,11.30
2022-11-13T15:03:50.755Z,11.30
2022-11-13T15:06:22.406Z,11.20
2022-11-13T15:08:51.266Z,11.00
2022-11-13T15:11:19.703Z,10.90
2022-11-13T15:13:46.818Z,10.70
2022-11-13T15:16:16.919Z,10.60
2022-11-13T15:18:55.554Z,10.40
2022-11-13T15:21:22.306Z,10.30
2022-11-13T15:23:48.947Z,10.10
2022-11-13T15:26:15.620Z,10.00
2022-11-13T15:28:42.295Z,9.90
2022-11-13T15:31:35.091Z,9.80
2022-11-13T15:34:02.088Z,9.70
2022-11-13T15:36:28.802Z,9.50
2022-11-13T15:38:55.742Z,9.40
2022-11-13T15:41:24.527Z,9.20
2022-11-13T15:43:54.780Z,9.10
2022-11-13T15:46:23.094Z,9.00
2022-11-13T15:48:50.420Z,8.80
2022-11-13T15:51:24.849Z,8.70
2022-11-13T15:53:57.178Z,8.60
2022-11-13T15:56:24.897Z,8.50
2022-11-13T15:58:51.725Z,8.40
2022-11-13T16:01:20.553Z,8.30
2022-11-13T16:03:47.797Z,8.20
2022-11-13T16:06:21.298Z,8.10
2022-11-13T16:08:48.428Z,8.00
2022-11-13T16:11:16.963Z,7.90
2022-11-13T16:13:45.721Z,7.80
2022-11-13T16:16:26.401Z,7.60
2022-11-13T16:18:59.950Z,7.50
2022-11-13T16:21:27.483Z,7.40
2022-11-13T16:23:54.188Z,7.30
2022-11-13T16:26:27.291Z,7.30
2022-11-13T16:31:41.702Z,7.10
2022-11-13T16:34:10.166Z,7.10
2022-11-13T16:36:37.263Z,7.00
2022-11-13T16:39:04.861Z,7.00
2022-11-13T16:41:32.635Z,6.90
2022-11-13T16:43:59.307Z,6.80
2022-11-13T16:46:32.798Z,6.80
2022-11-13T16:48:59.576Z,6.80
2022-11-13T16:51:26.384Z,6.70
2022-11-13T16:53:53.073Z,6.70
2022-11-13T16:56:28.064Z,6.60
2022-11-13T16:58:58.877Z,6.60
2022-11-13T17:01:26.213Z,6.60
2022-11-13T17:03:53.454Z,6.50
2022-11-13T17:06:22.540Z,6.50
2022-11-13T17:08:51.235Z,6.50
2022-11-13T17:11:18.338Z,6.40
2022-11-13T17:13:53.429Z,6.40
2022-11-13T17:16:21.526Z,6.40
2022-11-13T17:18:50.279Z,6.40
2022-11-13T17:21:17.085Z,6.30
2022-11-13T17:23:44.134Z,6.30
2022-11-13T17:26:11.370Z,6.20
2022-11-13T17:28:38.578Z,6.20
2022-11-13T17:31:08.439Z,6.20
2022-11-13T17:33:35.268Z,6.20
2022-11-13T17:36:02.567Z,6.10
2022-11-13T17:38:29.527Z,6.10
2022-11-13T17:40:56.188Z,6.10
2022-11-13T17:43:23.363Z,6.00
2022-11-13T17:45:51.448Z,5.90
2022-11-13T17:48:18.881Z,5.90
2022-11-13T17:50:45.794Z,5.80
2022-11-13T17:53:13.422Z,5.80
2022-11-13T17:55:40.041Z,5.80
2022-11-13T17:58:06.835Z,5.70
2022-11-13T18:00:33.480Z,5.70
2022-11-13T18:03:00.593Z,5.70
2022-11-13T18:05:27.288Z,5.70
2022-11-13T18:07:53.926Z,5.60
2022-11-13T18:10:20.590Z,5.50
2022-11-13T18:12:47.235Z,5.50
2022-11-13T18:15:14.470Z,5.50
2022-11-13T18:17:41.150Z,5.50
2022-11-13T18:20:09.939Z,5.40
2022-11-13T18:22:36.750Z,5.40
2022-11-13T18:25:03.571Z,5.40
2022-11-13T18:27:31.551Z,5.50
2022-11-13T18:29:58.203Z,5.50
2022-11-13T18:32:25.066Z,5.50
2022-11-13T18:34:51.832Z,5.50
2022-11-13T18:37:18.777Z,5.50
2022-11-13T18:39:45.794Z,5.50
2022-11-13T18:42:12.414Z,5.40
2022-11-13T18:44:39.409Z,5.00
2022-11-13T18:47:06.203Z,4.80
2022-11-13T18:49:33.311Z,4.80
2022-11-13T18:51:59.986Z,4.90
2022-11-13T18:54:27.909Z,4.90
2022-11-13T18:56:54.790Z,4.80
2022-11-13T18:59:21.946Z,4.70
2022-11-13T19:01:48.699Z,4.60
2022-11-13T19:04:22.881Z,4.50
2022-11-13T19:06:50.910Z,4.60
2022-11-13T19:09:17.881Z,4.50
2022-11-13T19:11:45.658Z,4.50
2022-11-13T19:14:17.099Z,4.50
2022-11-13T19:16:44.083Z,4.40
2022-11-13T19:19:22.509Z,4.30
2022-11-13T19:21:49.835Z,4.30
2022-11-13T19:24:17.064Z,4.30
2022-11-13T19:26:44.794Z,4.30
2022-11-13T19:29:11.665Z,4.20
2022-11-13T19:31:38.510Z,4.20
2022-11-13T19:34:07.596Z,4.20
2022-11-13T19:36:35.520Z,4.20
2022-11-13T19:39:02.696Z,4.20
2022-11-13T19:41:29.767Z,4.30
2022-11-13T19:43:58.430Z,4.30
2022-11-13T19:46:25.502Z,4.20
2022-11-13T19:48:52.508Z,4.20
2022-11-13T19:51:21.692Z,4.20
2022-11-13T19:53:53.451Z,4.10
2022-11-13T19:56:21.811Z,4.10
2022-11-13T19:58:50.434Z,3.90
2022-11-13T20:01:19.821Z,3.90
2022-11-13T20:03:46.864Z,4.00
2022-11-13T20:06:15.705Z,3.90
2022-11-13T20:08:43.049Z,3.90
2022-11-13T20:11:11.946Z,3.90
2022-11-13T20:13:41.538Z,3.90
2022-11-13T20:16:10.587Z,3.90
2022-11-13T20:18:37.661Z,3.80
2022-11-13T20:21:05.527Z,3.70
2022-11-13T20:23:32.549Z,3.70
2022-11-13T20:26:02.212Z,3.70
2022-11-13T20:28:30.252Z,3.60
2022-11-13T20:31:11.551Z,3.60
2022-11-13T20:33:38.189Z,3.40
2022-11-13T20:36:05.339Z,3.40
2022-11-13T20:38:32.416Z,3.40
2022-11-13T20:41:02.567Z,3.30
2022-11-13T20:43:29.434Z,3.30
2022-11-13T20:46:10.555Z,3.20
2022-11-13T20:48:37.500Z,3.10
2022-11-13T20:51:16.400Z,3.10
2022-11-13T20:53:43.612Z,3.10
2022-11-13T20:56:10.775Z,3.00
2022-11-13T20:58:37.827Z,3.10
2022-11-13T21:01:06.961Z,3.20
2022-11-13T21:03:39.890Z,3.20
2022-11-13T21:06:09.448Z,3.10
2022-11-13T21:08:36.430Z,3.10
2022-11-13T21:11:04.347Z,3.20
2022-11-13T21:13:31.244Z,3.10
2022-11-13T21:15:58.409Z,3.00
2022-11-13T21:18:25.416Z,3.00
2022-11-13T21:20:52.301Z,2.90
2022-11-13T21:23:18.930Z,2.90
2022-11-13T21:25:45.599Z,2.80
2022-11-13T21:28:12.277Z,2.70
2022-11-13T21:30:39.280Z,2.70
2022-11-13T21:33:05.904Z,2.70
2022-11-13T21:35:32.596Z,2.70
2022-11-13T21:37:59.279Z,2.80
2022-11-13T21:40:25.901Z,2.80
2022-11-13T21:42:52.572Z,2.80
2022-11-13T21:45:19.293Z,2.70
2022-11-13T21:47:46.003Z,2.70
2022-11-13T21:50:12.685Z,2.70
2022-11-13T21:52:39.339Z,2.60
2022-11-13T21:55:06.599Z,2.60
2022-11-13T21:57:33.254Z,2.50
2022-11-13T21:59:59.959Z,2.50
2022-11-13T22:02:26.648Z,2.50
2022-11-13T22:04:53.443Z,2.60
2022-11-13T22:07:20.235Z,2.60
2022-11-13T22:09:46.970Z,2.50
2022-11-13T22:12:14.216Z,2.50
2022-11-13T22:14:40.897Z,2.60
2022-11-13T22:17:07.691Z,2.50
2022-11-13T22:19:36.367Z,2.50
2022-11-13T22:22:03.252Z,2.70
2022-11-13T22:24:30.755Z,2.70
2022-11-13T22:26:57.485Z,2.70
2022-11-13T22:29:24.159Z,2.70
2022-11-13T22:31:50.831Z,2.80
2022-11-13T22:34:18.170Z,2.70
2022-11-13T22:36:44.853Z,2.80
2022-11-13T22:39:11.542Z,2.80
2022-11-13T22:41:38.323Z,2.90
2022-11-13T22:44:12.111Z,2.80
2022-11-13T22:46:38.962Z,2.80
2022-11-13T22:49:06.548Z,2.80
2022-11-13T22:51:38.008Z,2.70
2022-11-13T22:54:07.414Z,2.70
2022-11-13T22:56:35.626Z,2.70
2022-11-13T22:59:04.752Z,2.70
2022-11-13T23:01:33.823Z,2.60
2022-11-13T23:04:03.541Z,2.60
2022-11-13T23:06:32.355Z,2.70
2022-11-13T23:09:00.275Z,2.70
2022-11-13T23:11:33.289Z,2.70
2022-11-13T23:14:02.861Z,2.80
2022-11-13T23:16:30.779Z,2.80
2022-11-13T23:18:59.567Z,2.80
2022-11-13T23:21:28.007Z,2.70
2022-11-13T23:23:55.354Z,2.70
2022-11-13T23:26:22.992Z,2.80
2022-11-13T23:28:49.641Z,2.90
2022-11-13T23:31:16.471Z,2.80
2022-11-13T23:33:43.347Z,2.80
2022-11-13T23:36:11.617Z,2.70
2022-11-13T23:38:38.580Z,2.80
2022-11-13T23:41:05.454Z,2.80
2022-11-13T23:44:06.496Z,2.70
2022-11-13T23:46:19.545Z,2.80
2022-11-13T23:48:46.256Z,2.80
2022-11-13T23:51:12.892Z,2.80
2022-11-13T23:53:39.574Z,2.80
2022-11-13T23:56:06.815Z,2.80
2022-11-13T23:58:34.183Z,2.80
